NWS Home NWS Lubbock West Texas Mesonet                      Daily Summary For 11/23/2020

Latest   N   C   S   Daily Sum   3hrΔ   24hrΔ   Soil Data 
Site Map   24hr Precip   72hr Precip   Google Plot


Station Time of Last Max Temp Min Temp Max/Min Dew Pt. Max/Min RH 10m Avg Wind 2m Avg Wind Peak Gust @ 33ft (mph) Potential Evapotranspiration
mm/day or in/day
Rain Sum Solar Rad
MJ/m^2
% Clear Day Red Flag
Abernathy 5ENE 09:35 AM 45 41 43 /39 98 / 82 13.3  (SE) 11 23 mph 151° @ 0527 AM 0.5 or 0.02 0.00 0.4 2.6 0
Adrian 6WSW 09:35 AM 42 40 42 /38 99 / 89 11.4  (S) 8.4 21.3 mph 213° @ 0904 AM 0.5 or 0.02 0.02 0.1 0.6 0
Aiken 3WSW 09:35 AM 44 41 43 /39 99 / 87 13.4  (SE) 11.8 23.8 mph 151° @ 0621 AM 0.5 or 0.02 0.00 0.3 2.1 0
Amarillo 15NNW 09:35 AM 46 43 42 /38 96 / 76 8.7  (SE) 5.9 18.6 mph 182° @ 0813 AM 0.8 or 0.03 0.01 0.1 0.7 0
Amarillo 7SSE 09:35 AM 43 41 42 /40 100 / 89 12.2  (S) 9.1 23.2 mph 171° @ 0909 AM 0.5 or 0.02 0.02 0.2 1.3 0
Amarillo 9NNE 09:35 AM 45 42 42 /39 98 / 82 11.9  (S) 9.4 27.8 mph 169° @ 0935 AM 0.8 or 0.03 0.02 0.1 1.1 0
Amherst 1NE 09:35 AM 45 42 42 /39 99 / 82 11.9  (SE) 9.4 20 mph 131° @ 0915 AM 0.8 or 0.03 0.00 0.1 1.1 0
Andrews 2E 09:35 AM 48 45 47 /44 100 / 99 10  (E) 7 16.9 mph 123° @ 0915 AM 0.5 or 0.02 0.02 0.2 1.6 0
Anton 6SSW 09:35 AM 45 42 42 /39 99 / 81 12.8  (E) 10.5 20.8 mph 141° @ 0450 AM 0.8 or 0.03 0.00 0.2 1.1 0
Aspermont 3NE 09:35 AM 49 45 43 /41 89 / 78 5.7  (E) 3.2 14.5 mph 70° @ 1230 AM 0.8 or 0.03 0.00 0.7 4.9 0
Big Bend NP - Castolon 09:35 AM 71 61 54 /51 71 / 52 8.1  (E) 5.8 20.7 mph 109° @ 1208 AM 2 or 0.08 0.00 1.4 9.1 0
Big Bend NP - Persimmon Gap 09:35 AM 61 56 56 /53 93 / 80 15.9  (NE) 12.6 26 mph 32° @ 1203 AM 1.3 or 0.05 0.00 1.4 9 0
Big Lake 1WNW 09:35 AM 54 49 53 /48 100 / 92 8.4  (E) 6.6 18.1 mph 128° @ 0913 AM 0.5 or 0.02 0.00 0.2 1.6 0
Bootleg 11WNW 09:35 AM 42 40 42 /40 100 / 100 13.7  (SE) 10.2 23.4 mph 172° @ 0918 AM 0.3 or 0.01 0.03 0.1 0.6 0
Borger 7E 09:35 AM 45 41 41 /37 97 / 76 12.1  (SE) 9.2 25.2 mph 186° @ 0849 AM 0.8 or 0.03 0.03 0.1 1.1 0
Boys Ranch 1WSW 09:35 AM 46 44 44 /38 98 / 74 4.2  (S) 2.8 9.9 mph 179° @ 0154 AM 0.5 or 0.02 0.00 0.1 0.5 0
Brownfield 2S 09:35 AM 45 43 44 /41 99 / 86 11.7  (E) 9.7 19.7 mph 140° @ 0549 AM 0.5 or 0.02 0.00 0.2 1.1 0
Canadian 6E 09:35 AM 44 40 42 /39 100 / 91 12.4  (SE) 8.1 24.4 mph 174° @ 0624 AM 0.5 or 0.02 0.00 0.2 1.6 0
Caprock Canyons State Park 09:35 AM 44 42 41 /40 93 / 89 10.3  (SE) 7.7 17.4 mph 161° @ 0501 AM 0.5 or 0.02 0.00 0.2 1.3 0
Childress 2NNE 09:35 AM 46 43 41 /40 90 / 84 8.8  (E) 6.2 13.9 mph 149° @ 0920 AM 0.8 or 0.03 0.00 0.3 2.4 0
Clarendon 2WSW 09:35 AM 43 40 40 /38 96 / 88 11.1  (SE) 8.1 21.2 mph 178° @ 0845 AM 0.5 or 0.02 0.00 0.3 2.5 0
Claude 12SW 09:35 AM 41 40 41 /40 100 / 100 10.4  (SE) 7.8 18.3 mph 149° @ 0911 AM 0.3 or 0.01 0.00 0.1 1 0
Clyde 2WNW 09:35 AM 46 43 43 /41 92 / 88 8  (E) 5.7 20.6 mph 104° @ 0427 AM 0.5 or 0.02 0.00 0.5 3.4 0
Colorado City 5NW 09:35 AM 50 46 45 /42 87 / 83 7.8  (E) 5.2 15.9 mph 94° @ 1238 AM 0.8 or 0.03 0.00 0.3 2 0
Comanche Springs 09:35 AM 47 44 42 /41 88 / 84 5.4  (E) 4.3 12.1 mph 96° @ 0213 AM 0.8 or 0.03 0.00 0.3 2.3 0
Coyanosa 2N 09:35 AM 58 52 57 /48 100 / 85 10  (E) 6.9 18.8 mph 94° @ 0929 AM 0.8 or 0.03 0.00 0.6 4.1 0
Crane 1NNW 09:35 AM 53 51 53 /48 97 / 85 12.2  (E) 10.5 19.5 mph 114° @ 0510 AM 0.8 or 0.03 0.00 0.2 1.6 0
Crowell 1E 09:35 AM 47 44 42 /40 91 / 81 5.9  (SE) 5 12.5 mph 121° @ 0615 AM 0.8 or 0.03 0.00 0.3 2.3 0
Dell City 09:35 AM 57 48 51 /44 91 / 78 4  (W) 2.1 13.6 mph 149° @ 0933 AM 0.8 or 0.03 0.00 1 6.9 0
Denver City 7WNW 09:35 AM 46 43 45 /43 100 / 100 11.8  (E) 9.1 20.4 mph 138° @ 0930 AM 0.5 or 0.02 0.05 0.2 1.5 0
Dimmitt 2NE 09:35 AM 43 41 42 /38 100 / 87 13.7  (SE) 11.3 20.7 mph 164° @ 0740 AM 0.5 or 0.02 0.02 0.2 1.4 0
Doole 3WNW 09:35 AM 51 47 46 /42 84 / 76 8.7  (NE) 6.8 15.1 mph 65° @ 0458 AM 1 or 0.04 0.00 0.7 4.6 0
Dora NM 2SW 09:35 AM 44 42 43 /41 100 / 100 10.5  (SE) 8.3 21.5 mph 172° @ 0905 AM 0.5 or 0.02 0.07 0.1 0.8 0
Dozier 3W 09:35 AM 44 42 42 /40 100 / 93 9.7  (SE) 6.8 18.2 mph 161° @ 0515 AM 0.5 or 0.02 0.00 0.2 1.8 0
Earth 9WSW 09:35 AM 44 42 43 /39 99 / 82 11.6  (E) 5.6 25.4 mph 131° @ 0834 AM 0.5 or 0.02 0.04 0.2 1.5 0
Endee NM 2SW 09:35 AM 45 42 43 /40 99 / 87 7.2  (S) 5.2 16.4 mph 191° @ 0618 AM 0.5 or 0.02 0.03 0.1 0.5 0
Estelline 3SSE 09:35 AM 47 44 41 /40 90 / 82 7.5  (SE) 5.2 15.3 mph 161° @ 0423 AM 0.8 or 0.03 0.00 0.3 2.5 0
Floydada 2NNE 09:35 AM 44 41 43 /39 98 / 89 11.9  (SE) 9 20.2 mph 143° @ 0455 AM 0.5 or 0.02 0.00 0.4 2.6 0
Fluvanna 3WNW 09:35 AM 45 42 43 /40 98 / 90 7.5  (E) 6.1 14.4 mph 93° @ 1245 AM 0.5 or 0.02 0.01 0.2 1.6 0
Fort Chadbourne 09:35 AM 47 46 44 /42 91 / 85 7.9  (E) 5.9 16.9 mph 82° @ 0124 AM 0.8 or 0.03 0.00 0.3 2.2 0
Fort Lancaster 09:35 AM 61 56 60 /54 100 / 87 9.2  (E) 6.3 22.7 mph 126° @ 0904 AM 0.5 or 0.02 0.00 0.2 1.1 0
Fort Lewis CO 09:35 AM 44 38 39 /34 100 / 71 8.7  (NE) 4.7 18.9 mph 83° @ 0638 AM 0.8 or 0.03 0.00 0.2 1.6 0
Fort McKavett 09:35 AM 54 50 51 /49 100 / 87 4.9  (E) 1.2 13.3 mph 60° @ 0138 AM 0.5 or 0.02 0.00 0.4 2.7 0
Friona 2NE 09:35 AM 43 41 42 /39 99 / 91 10.7  (SE) 8.2 19.4 mph 178° @ 0910 AM 0.5 or 0.02 0.03 0.1 0.9 0
Fritch 1WNW 09:35 AM 46 42 42 /37 98 / 71 10.9  (S) 8.9 23.6 mph 192° @ 0808 AM 0.8 or 0.03 0.02 0.1 0.9 0
Gail 2ESE 09:35 AM 46 44 43 /40 95 / 83 6.3  (E) 4.7 13.2 mph 75° @ 1245 AM 0.8 or 0.03 0.00 0.2 1.3 0
Goodlett 3W 09:35 AM 46 44 41 /40 87 / 84 7.2  (SE) 5.9 13 mph 134° @ 0630 AM 0.8 or 0.03 0.00 0.3 2.4 0
Goodnight 09:35 AM 42 39 40 /39 99 / 91 13.8  (S) 10.6 22.8 mph 163° @ 0806 AM 0.5 or 0.02 0.00 0.1 0.9 0
Graham 5SSW 09:35 AM 44 42 44 /41 100 / 88 9.3  (E) 6.8 18.6 mph 98° @ 0244 AM 0.5 or 0.02 0.00 0.3 2 0
Guadalupe Mtns Natl Park 09:35 AM 51 46 48 /45 100 / 88 4.6  (E) 3.3 17.5 mph 239° @ 0921 AM 0.5 or 0.02 0.00 0.3 1.9 0
Guthrie 10WSW 09:35 AM 47 44 41 /40 87 / 80 7.5  (E) 5.5 15.5 mph 124° @ 0150 AM 0.8 or 0.03 0.00 0.3 2.4 0
Hackberry 2SSE 09:35 AM 47 44 42 /41 91 / 85 6.5  (E) 5.2 14.1 mph 113° @ 0149 AM 0.8 or 0.03 0.00 0.3 2.4 0
Happy 1E 09:35 AM 43 41 43 /39 100 / 86 13.1  (SE) 10.5 23.5 mph 175° @ 0905 AM 0.5 or 0.02 0.00 0.2 1.8 0
Hart 3N 09:35 AM 43 41 42 /39 100 / 89 10.6  (SE) 7.5 19.6 mph 161° @ 0905 AM 0.5 or 0.02 0.01 0.2 1.1 0
Haskell 1NW 09:35 AM 49 45 42 /41 89 / 77 5.7  (E) 5 13.2 mph 143° @ 0855 AM 0.8 or 0.03 0.00 0.7 4.9 0
Hefner 1SW 09:35 AM 47 43 42 /40 90 / 81 5.7  (SE) 4.4 12.3 mph 137° @ 0916 AM 0.8 or 0.03 0.00 0.4 2.8 0
Hereford 2NW 09:35 AM 43 41 42 /39 100 / 89 9.6  (SE) 7.6 22.1 mph 173° @ 0840 AM 0.5 or 0.02 0.03 0.1 1 0
Hobbs NM 5NW 09:35 AM 47 44 47 /44 100 / 100 9.9  (E) 7.7 19.6 mph 138° @ 0911 AM 0.5 or 0.02 0.04 0.2 1.5 0
Jayton 1SSE 09:35 AM 48 44 42 /41 90 / 82 8.4  (E) 6.6 17.1 mph 99° @ 0125 AM 0.8 or 0.03 0.00 0.5 3.3 0
Junction 1SSW 09:35 AM 58 51 51 /48 89 / 78 7.1  (NE) 5.9 13.7 mph 57° @ 0350 AM 1 or 0.04 0.00 0.4 2.6 0
Kent 9E 09:35 AM 50 48 50 /48 99 / 99 4.3  (E) 2.3 14.2 mph 69° @ 1229 AM 0.5 or 0.02 0.05 0.3 2 0
Knox City 3NW 09:35 AM 48 46 42 /41 85 / 77 5.9  (E) 4.4 15.3 mph 153° @ 0909 AM 0.8 or 0.03 0.00 0.4 3.1 0
Lake Alan Henry 1NW 09:35 AM 46 43 43 /41 91 / 87 6.5  (E) 4.9 15 mph 99° @ 0115 AM 0.5 or 0.02 0.00 0.3 2 0
Lake McClellan 2NW 09:35 AM 41 39 40 /38 99 / 92 12.7  (SE) 10.2 23.2 mph 176° @ 0910 AM 0.5 or 0.02 0.00 0.2 1.3 0
Lamesa 2SE 09:35 AM 46 43 45 /41 98 / 88 10.5  (E) 6.8 18.9 mph 95° @ 0100 AM 0.5 or 0.02 0.00 0.2 1.6 0
Lesley 2S 09:35 AM 46 44 42 /41 90 / 85 10.8  (SE) 7.7 17.6 mph 132° @ 0427 AM 0.8 or 0.03 0.00 0.3 2.1 0
Levelland 4S 09:35 AM 44 42 44 /40 99 / 84 11.9  (E) 10.4 19.7 mph 137° @ 0935 AM 0.5 or 0.02 0.00 0.1 1 0
Lomax 1SSE 09:35 AM 49 47 48 /44 98 / 85 8.5  (E) 6.9 15.2 mph 129° @ 0823 AM 0.5 or 0.02 0.00 0.2 1.6 0
Lubbock 3WNW TTU 09:35 AM 45 42 43 /40 100 / 84 9.6  (E) 6.1 17.8 mph 140° @ 0435 AM 0.5 or 0.02 0.00 0.2 1.6 0
McAdoo 3NNW 09:35 AM 43 40 42 /39 98 / 92 11  (E) 9.1 18.6 mph 159° @ 0900 AM 0.5 or 0.02 0.00 0.3 2.1 0
McCamey 1SSW 09:35 AM 58 53 57 /50 97 / 84 9.5  (E) 8.4 18.1 mph 74° @ 1218 AM 0.8 or 0.03 0.01 0.1 0.8 0
McLean 1E 09:35 AM 41 39 40 /38 100 / 98 12.5  (S) 10.8 22.7 mph 157° @ 0510 AM 0.5 or 0.02 0.00 0.2 1.5 0
Memphis 1NE 09:35 AM 45 43 41 /40 91 / 87 8.9  (E) 7.4 17.5 mph 147° @ 0450 AM 0.8 or 0.03 0.00 0.3 2 0
Menard 2NW 09:35 AM 53 48 49 /46 95 / 85 7.3  (NE) 5.9 13 mph 97° @ 0357 AM 0.8 or 0.03 0.00 0.3 2.3 0
Mertzon 3NNE 09:35 AM 50 46 50 /46 100 / 98 6.7  (NE) 5.1 15.1 mph 75° @ 1202 AM 0.5 or 0.02 0.01 0.2 1.6 0
Morton 1ENE 09:35 AM 45 43 44 /40 100 / 85 10.6  (SE) 8.4 18.6 mph 153° @ 0930 AM 0.5 or 0.02 0.03 0.1 1.1 0
Muleshoe 2SSW 09:35 AM 44 42 44 /40 100 / 88 8.4  (SE) 6.5 17.5 mph 165° @ 0700 AM 0.5 or 0.02 0.06 0.2 1.2 0
New Home 09:35 AM 44 42 44 /41 100 / 87 8.1  (E) 2.4 17.9 mph 111° @ 1244 AM 0.5 or 0.02 0.01 0.2 1.7 0
Northfield 1S 09:35 AM 47 44 41 /40 87 / 81 8.1  (SE) 5.7 15.3 mph 158° @ 0425 AM 0.8 or 0.03 0.00 0.3 2.4 0
O'Donnell 1N 09:35 AM 45 43 44 /41 100 / 87 10.1  (E) 6.8 16 mph 107° @ 0155 AM 0.5 or 0.02 0.00 0.3 2 0
Odell 4ENE 09:35 AM 46 39 42 /37 95 / 82 4.5  (E) 2.8 13.4 mph 150° @ 0921 AM 0.5 or 0.02 0.00 0.5 3.7 0
Olton 6S 09:35 AM 44 41 42 /39 100 / 84 12.3  (SE) 10.4 20.7 mph 145° @ 0335 AM 0.5 or 0.02 0.00 0.2 1.4 0
Paducah 10SW 09:35 AM 47 44 42 /40 91 / 85 9  (SE) 6.2 16.2 mph 165° @ 0910 AM 0.8 or 0.03 0.00 0.4 2.7 0
Palo Duro 4E (JA Ranch) 09:35 AM 44 42 41 /40 97 / 90 9.6  (SE) 7.5 17.2 mph 146° @ 0443 AM 0.5 or 0.02 0.00 0.1 1 0
Palo Duro Canyon SP Floor 09:35 AM 46 44 42 /39 90 / 80 8.5  (SE) 4.5 18.2 mph 144° @ 0815 AM 0.8 or 0.03 0.00 0.1 1.1 0
Palo Duro Canyon State Park Rim 09:35 AM 43 41 42 /39 100 / 84 9.6  (SE) 5.8 23.6 mph 172° @ 0743 AM 0.5 or 0.02 0.01 0.1 1.1 0
Palo Duro Reservoir 1NW 09:35 AM 45 43 41 /36 90 / 75 14.7  (S) 10.4 35.4 mph 186° @ 0915 AM 1 or 0.04 0.00 0.2 1.6 0
Pampa 2E 09:35 AM 42 39 40 /38 100 / 93 15.3  (SE) 11.9 28.4 mph 162° @ 0830 AM 0.5 or 0.02 0.00 0.2 1.6 0
Panhandle 1SSW 09:35 AM 42 39 40 /39 100 / 91 15  (S) 12.8 25.4 mph 164° @ 0722 AM 0.5 or 0.02 0.00 0.2 1.2 0
Plains 3N 09:35 AM 45 43 44 /42 100 / 99 12.3  (E) 10.3 21.6 mph 123° @ 0755 AM 0.5 or 0.02 0.02 0.2 1.3 0
Plainview 1S 09:35 AM 44 42 43 /39 99 / 85 10  (SE) 8 18.6 mph 157° @ 0600 AM 0.5 or 0.02 0.00 0.2 1.6 0
Post 1NE 09:35 AM 45 42 44 /41 99 / 87 7.5  (E) 4.8 15.3 mph 99° @ 0227 AM 0.5 or 0.02 0.00 0.2 1.4 0
Ralls 1SE 09:35 AM 44 41 41 /38 95 / 84 11.2  (E) 8.8 18.2 mph 135° @ 0345 AM 0.8 or 0.03 0.00 0.3 2.3 0
Reese Center 09:35 AM 45 42 43 /40 100 / 81 12.2  (E) 10 19.7 mph 144° @ 0446 AM 0.5 or 0.02 0.00 0.2 1.2 0
Roaring Springs 3N 09:35 AM 44 41 43 /41 100 / 95 9.9  (SE) 7.7 16.3 mph 141° @ 0330 AM 0.5 or 0.02 0.00 0.4 2.9 0
Romero 11SSW 09:35 AM 44 42 44 /38 99 / 80 9.4  (S) 7.2 16.1 mph 187° @ 0926 AM 0.5 or 0.02 0.05 0.1 0.6 0
Rotan 5W 09:35 AM 49 44 42 /41 90 / 77 8.9  (E) 7.6 17.8 mph 93° @ 0143 AM 0.8 or 0.03 0.00 0.5 3.5 0
San Angelo 7NW 09:35 AM 49 46 45 /43 94 / 85 10.2  (NE) 6.9 16.3 mph 80° @ 0145 AM 0.8 or 0.03 0.00 0.3 2.3 0
Seagraves 1SW 09:35 AM 45 43 45 /42 100 / 93 8.1  (E) 5.6 17 mph 112° @ 1250 AM 0.5 or 0.02 0.00 0.2 1.4 0
Segovia 7SSW 09:35 AM 56 52 52 /49 92 / 85 6.5  (NE) 4.8 14.8 mph 64° @ 1205 AM 0.8 or 0.03 0.00 0.6 3.7 0
Seminole 2NNE 09:35 AM 46 44 45 /43 99 / 98 11.9  (E) 8.7 19.4 mph 108° @ 0115 AM 0.5 or 0.02 0.02 0.2 1.6 0
Seymour 3NW 09:35 AM 46 39 42 /38 96 / 84 4.4  (NE) 3.1 11.8 mph 138° @ 0910 AM 0.5 or 0.02 0.00 0.3 2.3 0
Sierra Blanca 1SSE 09:35 AM 59 48 51 /47 100 / 74 10.1  (SE) 7.5 24.6 mph 178° @ 0934 AM 1 or 0.04 0.00 1.1 7.3 0
Silverton 7ESE 09:35 AM 42 40 42 /39 100 / 96 11.5  (SE) 9.2 19.2 mph 149° @ 0505 AM 0.5 or 0.02 0.00 0.2 1.5 0
Slaton 2NE 09:35 AM 44 41 43 /41 99 / 89 10.6  (E) 8.8 17.5 mph 112° @ 0249 AM 0.5 or 0.02 0.00 0.4 2.7 0
Smyer 09:35 AM 45 42 43 /39 98 / 81 9.5  (E) 7.9 17 mph 131° @ 0817 AM 0.5 or 0.02 0.01 0.1 1.1 0
Snyder 3E 09:35 AM 48 43 43 /41 94 / 84 7.8  (E) 3.3 17.4 mph 82° @ 1250 AM 0.8 or 0.03 0.00 0.3 2.2 0
Snyder 3SSW 09:35 AM 48 44 46 /43 97 / 84 7.7  (E) 5.8 17.1 mph 75° @ 1223 AM 0.8 or 0.03 0.00 0.3 2.1 0
South Plains 3ENE 09:35 AM 44 41 44 /39 98 / 90 10.3  (E) 8.2 20.6 mph 158° @ 0908 AM 0.5 or 0.02 0.00 0.3 2.3 0
Spur 1W 09:35 AM 46 43 42 /40 91 / 86 6.4  (E) 5.1 14.8 mph 117° @ 1255 AM 0.8 or 0.03 0.00 0.3 2.2 0
St. Lawrence 5SW 09:35 AM 50 47 47 /46 99 / 89 12.9  (E) 10.1 20.7 mph 115° @ 0920 AM 0.5 or 0.02 0.00 0.3 1.7 0
Stamford 5ESE 09:35 AM 50 45 43 /41 87 / 76 7  (E) 6 13.4 mph 141° @ 0827 AM 0.8 or 0.03 0.00 0.8 6.1 0
Sterling City 4WSW 09:35 AM 49 46 47 /46 100 / 91 9  (E) 6.8 17 mph 84° @ 0124 AM 0.5 or 0.02 0.00 0.2 1.7 0
Stinnett 1NNW 09:35 AM 44 41 42 /37 100 / 78 11.8  (S) 8.1 22.1 mph 191° @ 0918 AM 0.8 or 0.03 0.00 0.1 0.8 0
Stratford 4WNW 09:35 AM 45 42 42 /36 94 / 70 15.9  (S) 10.6 30.1 mph 189° @ 0821 AM 0.8 or 0.03 0.00 0.1 1 0
Sundown 8WSW 09:35 AM 44 42 44 /40 100 / 88 11  (E) 7.6 20.1 mph 137° @ 0925 AM 0.5 or 0.02 0.02 0.1 1 0
Sweetwater 11SW 09:35 AM 50 44 45 /41 91 / 81 9.4  (E) 7.5 18.9 mph 124° @ 0811 AM 1 or 0.04 0.00 0.9 6.4 0
Tahoka 3NNE 09:35 AM 44 42 43 /40 99 / 87 7.8  (E) 5 15 mph 93° @ 1229 AM 0.5 or 0.02 0.01 0.3 1.9 0
Tarzan 2WNW 09:35 AM 48 45 48 /44 100 / 92 10.2  (E) 7.2 18.4 mph 84° @ 0100 AM 0.5 or 0.02 0.00 0.2 1.6 0
Tatum NM 2SW 09:35 AM 45 43 43 /41 96 / 96 13.2  (E) 8.7 23.1 mph 133° @ 0900 AM 0.5 or 0.02 0.08 0.2 1.2 0
Throckmorton 1SW 09:35 AM 48 40 43 /40 100 / 83 3.3  (S) 1.5 14.2 mph 149° @ 0859 AM 0.5 or 0.02 0.00 0.5 3.7 0
Truscott 2SE 09:35 AM 47 45 42 /41 87 / 80 5.8  (E) 4.4 12.7 mph 135° @ 0744 AM 0.8 or 0.03 0.00 0.5 3.4 0
Tulia 2ENE 09:35 AM 43 41 41 /38 97 / 85 12.9  (SE) 10.1 21 mph 163° @ 0905 AM 0.8 or 0.03 0.00 0.2 1.6 0
Turkey 2WSW 09:35 AM 45 43 41 /39 92 / 87 10.8  (E) 8.7 17.8 mph 126° @ 0440 AM 0.8 or 0.03 0.00 0.2 1.4 0
Umbarger 3NNE 09:35 AM 43 41 42 /39 100 / 86 11.4  (SE) 9.3 21.4 mph 180° @ 0714 AM 0.5 or 0.02 0.02 0.2 1.2 0
Van Horn 3ENE 09:35 AM 61 48 51 /46 95 / 68 7  (NE) 4.8 22.5 mph 170° @ 0927 AM 1 or 0.04 0.00 1.1 7.7 0
Vega 4E 09:35 AM 43 41 42 /38 99 / 85 12.5  (S) 9.9 26.3 mph 177° @ 0926 AM 0.5 or 0.02 0.00 0.1 0.9 0
Vigo Park 09:35 AM 43 41 43 /40 100 / 94 12.1  (SE) 9.3 23.8 mph 170° @ 0913 AM 0.5 or 0.02 0.00 0.2 1.8 0
Wall 2E 09:35 AM 51 47 47 /44 94 / 85 10.4  (E) 8 17.2 mph 63° @ 1258 AM 0.8 or 0.03 0.00 0.4 3 0
Weinert 2NNE 09:35 AM 48 45 42 /41 86 / 78 5.2  (E) 4.1 15.7 mph 141° @ 0842 AM 0.8 or 0.03 0.00 0.4 2.6 0
Welch 09:35 AM 46 43 45 /43 100 / 97 11.2  (E) 7 19.6 mph 127° @ 0925 AM 0.5 or 0.02 0.00 0.3 2 0
White River Lake 6NW 09:35 AM 44 42 43 /40 98 / 89 7.8  (E) 5.3 16.4 mph 89° @ 1201 AM 0.5 or 0.02 0.00 0.3 1.9 0
Wolfforth 6SSW 09:35 AM 44 42 43 /40 99 / 85 11.5  (E) 9.6 18.6 mph 120° @ 0133 AM 0.5 or 0.02 0.00 0.2 1.6 0

WestTexas Mesonet Home    Site Map/Menu  National Weather Service Lubbock   Soil Data   Latest Observation Page   Previous  Date